sensor_id;sensor_type;location;lat;lon;timestamp;pressure;altitude;pressure_sealevel;temperature;humidity
6144;BME280;3103;49.492;8.474;2023-03-25T00:00:14;99756.63;;;11.16;71.70
6144;BME280;3103;49.492;8.474;2023-03-25T00:02:48;99759.16;;;11.33;72.93
6144;BME280;3103;49.492;8.474;2023-03-25T00:05:18;99756.00;;;11.04;71.04
6144;BME280;3103;49.492;8.474;2023-03-25T00:07:48;99766.25;;;11.07;70.08
6144;BME280;3103;49.492;8.474;2023-03-25T00:10:15;99770.41;;;10.87;68.67
6144;BME280;3103;49.492;8.474;2023-03-25T00:12:42;99778.22;;;10.89;68.06
6144;BME280;3103;49.492;8.474;2023-03-25T00:15:11;99771.81;;;10.95;67.70
6144;BME280;3103;49.492;8.474;2023-03-25T00:17:38;99780.81;;;10.79;67.18
6144;BME280;3103;49.492;8.474;2023-03-25T00:20:07;99780.91;;;10.89;66.89
6144;BME280;3103;49.492;8.474;2023-03-25T00:22:38;99779.41;;;11.03;67.11
6144;BME280;3103;49.492;8.474;2023-03-25T00:25:12;99782.56;;;10.95;67.11
6144;BME280;3103;49.492;8.474;2023-03-25T00:27:45;99787.38;;;10.93;67.03
6144;BME280;3103;49.492;8.474;2023-03-25T00:30:14;99791.41;;;10.90;67.14
6144;BME280;3103;49.492;8.474;2023-03-25T00:32:42;99792.22;;;10.96;67.79
6144;BME280;3103;49.492;8.474;2023-03-25T00:35:12;99788.06;;;10.78;68.13
6144;BME280;3103;49.492;8.474;2023-03-25T00:37:39;99780.25;;;10.77;69.08
6144;BME280;3103;49.492;8.474;2023-03-25T00:40:07;99779.16;;;10.73;69.39
6144;BME280;3103;49.492;8.474;2023-03-25T00:42:34;99777.97;;;10.58;70.63
6144;BME280;3103;49.492;8.474;2023-03-25T00:45:01;99776.78;;;10.76;70.25
6144;BME280;3103;49.492;8.474;2023-03-25T00:47:28;99794.91;;;10.91;70.74
6144;BME280;3103;49.492;8.474;2023-03-25T00:49:55;99787.53;;;10.81;71.23
6144;BME280;3103;49.492;8.474;2023-03-25T00:52:22;99799.44;;;10.85;72.32
6144;BME280;3103;49.492;8.474;2023-03-25T00:54:48;99794.59;;;10.87;73.17
6144;BME280;3103;49.492;8.474;2023-03-25T00:57:16;99784.31;;;10.79;73.53
6144;BME280;3103;49.492;8.474;2023-03-25T00:59:43;99779.84;;;10.90;73.08
6144;BME280;3103;49.492;8.474;2023-03-25T01:02:09;99783.81;;;11.19;72.49
6144;BME280;3103;49.492;8.474;2023-03-25T01:04:38;99787.19;;;11.05;72.61
6144;BME280;3103;49.492;8.474;2023-03-25T01:07:07;99772.03;;;10.88;74.09
6144;BME280;3103;49.492;8.474;2023-03-25T01:09:36;99776.19;;;11.06;74.10
6144;BME280;3103;49.492;8.474;2023-03-25T01:12:04;99767.28;;;10.68;74.23
6144;BME280;3103;49.492;8.474;2023-03-25T01:14:31;99771.09;;;10.73;74.85
6144;BME280;3103;49.492;8.474;2023-03-25T01:16:58;99777.19;;;10.95;74.65
6144;BME280;3103;49.492;8.474;2023-03-25T01:19:28;99770.03;;;11.11;74.40
6144;BME280;3103;49.492;8.474;2023-03-25T01:21:55;99771.97;;;11.15;73.95
6144;BME280;3103;49.492;8.474;2023-03-25T01:24:22;99764.69;;;11.16;74.08
6144;BME280;3103;49.492;8.474;2023-03-25T01:26:49;99761.94;;;11.06;74.64
6144;BME280;3103;49.492;8.474;2023-03-25T01:29:18;99762.13;;;10.94;75.87
6144;BME280;3103;49.492;8.474;2023-03-25T01:31:46;99767.22;;;10.58;77.31
6144;BME280;3103;49.492;8.474;2023-03-25T01:34:13;99774.72;;;10.56;79.44
6144;BME280;3103;49.492;8.474;2023-03-25T01:36:40;99770.47;;;10.33;82.49
6144;BME280;3103;49.492;8.474;2023-03-25T01:39:14;99762.97;;;10.35;82.08
6144;BME280;3103;49.492;8.474;2023-03-25T01:41:43;99769.53;;;10.45;84.04
6144;BME280;3103;49.492;8.474;2023-03-25T01:46:49;99792.13;;;10.00;86.59
6144;BME280;3103;49.492;8.474;2023-03-25T01:49:33;99801.53;;;10.02;90.95
6144;BME280;3103;49.492;8.474;2023-03-25T01:52:18;99811.19;;;10.03;91.10
6144;BME280;3103;49.492;8.474;2023-03-25T01:54:49;99810.13;;;9.61;93.48
6144;BME280;3103;49.492;8.474;2023-03-25T01:57:19;99806.63;;;9.60;93.56
6144;BME280;3103;49.492;8.474;2023-03-25T01:59:47;99780.50;;;9.50;91.42
6144;BME280;3103;49.492;8.474;2023-03-25T02:02:16;99753.97;;;9.32;91.59
6144;BME280;3103;49.492;8.474;2023-03-25T02:04:50;99746.09;;;9.26;90.23
6144;BME280;3103;49.492;8.474;2023-03-25T02:07:27;99727.53;;;9.19;87.94
6144;BME280;3103;49.492;8.474;2023-03-25T02:09:59;99738.41;;;9.12;85.89
6144;BME280;3103;49.492;8.474;2023-03-25T02:12:28;99724.91;;;9.24;86.95
6144;BME280;3103;49.492;8.474;2023-03-25T02:14:56;99740.22;;;9.07;86.49
6144;BME280;3103;49.492;8.474;2023-03-25T02:20:39;99744.03;;;8.94;84.31
6144;BME280;3103;49.492;8.474;2023-03-25T02:23:56;99747.38;;;8.84;85.09
6144;BME280;3103;49.492;8.474;2023-03-25T02:26:32;99755.16;;;8.86;85.01
6144;BME280;3103;49.492;8.474;2023-03-25T02:29:20;99767.28;;;8.88;85.64
6144;BME280;3103;49.492;8.474;2023-03-25T02:32:15;99776.44;;;8.76;85.72
6144;BME280;3103;49.492;8.474;2023-03-25T02:35:20;99757.63;;;8.87;84.44
6144;BME280;3103;49.492;8.474;2023-03-25T02:41:00;99767.84;;;8.90;82.34
6144;BME280;3103;49.492;8.474;2023-03-25T02:46:22;99761.06;;;9.21;79.31
6144;BME280;3103;49.492;8.474;2023-03-25T02:49:07;99771.06;;;9.09;77.96
6144;BME280;3103;49.492;8.474;2023-03-25T02:51:40;99769.03;;;9.16;78.07
6144;BME280;3103;49.492;8.474;2023-03-25T02:54:12;99768.44;;;9.14;77.75
6144;BME280;3103;49.492;8.474;2023-03-25T02:56:42;99768.13;;;9.11;78.15
6144;BME280;3103;49.492;8.474;2023-03-25T02:59:10;99776.81;;;9.18;78.33
6144;BME280;3103;49.492;8.474;2023-03-25T03:01:42;99776.56;;;9.19;78.19
6144;BME280;3103;49.492;8.474;2023-03-25T03:04:10;99776.09;;;9.06;78.01
6144;BME280;3103;49.492;8.474;2023-03-25T03:06:39;99777.72;;;9.07;78.57
6144;BME280;3103;49.492;8.474;2023-03-25T03:09:24;99776.81;;;9.18;78.94
6144;BME280;3103;49.492;8.474;2023-03-25T03:20:16;99785.13;;;9.16;78.48
6144;BME280;3103;49.492;8.474;2023-03-25T03:22:50;99772.84;;;9.20;77.91
6144;BME280;3103;49.492;8.474;2023-03-25T03:25:31;99780.47;;;9.12;77.72
6144;BME280;3103;49.492;8.474;2023-03-25T03:28:27;99762.22;;;9.09;77.12
6144;BME280;3103;49.492;8.474;2023-03-25T03:31:00;99774.66;;;9.15;77.36
6144;BME280;3103;49.492;8.474;2023-03-25T03:33:38;99778.50;;;9.24;76.74
6144;BME280;3103;49.492;8.474;2023-03-25T03:36:09;99777.47;;;9.08;77.22
6144;BME280;3103;49.492;8.474;2023-03-25T03:38:43;99763.47;;;9.01;77.69
6144;BME280;3103;49.492;8.474;2023-03-25T03:41:18;99764.72;;;8.99;77.75
6144;BME280;3103;49.492;8.474;2023-03-25T03:44:01;99762.06;;;8.99;77.49
6144;BME280;3103;49.492;8.474;2023-03-25T03:46:33;99775.31;;;8.88;77.49
6144;BME280;3103;49.492;8.474;2023-03-25T03:49:04;99776.75;;;8.96;77.74
6144;BME280;3103;49.492;8.474;2023-03-25T03:51:40;99766.78;;;8.91;77.71
6144;BME280;3103;49.492;8.474;2023-03-25T03:54:22;99772.69;;;8.93;77.23
6144;BME280;3103;49.492;8.474;2023-03-25T03:57:01;99765.41;;;8.89;77.44
6144;BME280;3103;49.492;8.474;2023-03-25T03:59:48;99765.22;;;8.96;76.54
6144;BME280;3103;49.492;8.474;2023-03-25T04:02:52;99769.97;;;8.88;76.47
6144;BME280;3103;49.492;8.474;2023-03-25T04:05:25;99780.75;;;8.93;77.66
6144;BME280;3103;49.492;8.474;2023-03-25T04:08:03;99759.88;;;8.96;76.92
6144;BME280;3103;49.492;8.474;2023-03-25T04:10:54;99754.44;;;8.90;76.12
6144;BME280;3103;49.492;8.474;2023-03-25T04:13:30;99772.88;;;8.87;75.89
6144;BME280;3103;49.492;8.474;2023-03-25T04:15:59;99762.16;;;8.87;76.34
6144;BME280;3103;49.492;8.474;2023-03-25T04:18:26;99775.06;;;8.90;76.02
6144;BME280;3103;49.492;8.474;2023-03-25T04:20:54;99778.56;;;8.90;76.23
6144;BME280;3103;49.492;8.474;2023-03-25T04:23:21;99784.72;;;8.91;76.59
6144;BME280;3103;49.492;8.474;2023-03-25T04:25:48;99789.41;;;8.84;76.29
6144;BME280;3103;49.492;8.474;2023-03-25T04:28:19;99795.25;;;8.98;76.55
6144;BME280;3103;49.492;8.474;2023-03-25T04:30:46;99787.97;;;8.93;76.24
6144;BME280;3103;49.492;8.474;2023-03-25T04:33:14;99790.66;;;8.93;76.65
6144;BME280;3103;49.492;8.474;2023-03-25T04:35:40;99789.59;;;8.94;76.88
6144;BME280;3103;49.492;8.474;2023-03-25T04:38:07;99799.00;;;8.97;76.96
6144;BME280;3103;49.492;8.474;2023-03-25T04:40:34;99797.31;;;8.90;76.92
6144;BME280;3103;49.492;8.474;2023-03-25T04:43:00;99801.38;;;8.93;77.13
6144;BME280;3103;49.492;8.474;2023-03-25T04:45:27;99801.38;;;8.93;77.58
6144;BME280;3103;49.492;8.474;2023-03-25T04:47:54;99800.63;;;8.98;77.52
6144;BME280;3103;49.492;8.474;2023-03-25T04:50:27;99799.81;;;8.97;78.21
6144;BME280;3103;49.492;8.474;2023-03-25T04:52:55;99803.78;;;8.95;78.98
6144;BME280;3103;49.492;8.474;2023-03-25T04:55:23;99805.03;;;8.87;79.29
6144;BME280;3103;49.492;8.474;2023-03-25T04:57:52;99800.88;;;8.96;79.34
6144;BME280;3103;49.492;8.474;2023-03-25T05:00:21;99802.34;;;8.87;79.57
6144;BME280;3103;49.492;8.474;2023-03-25T05:02:52;99801.44;;;8.81;80.71
6144;BME280;3103;49.492;8.474;2023-03-25T05:05:22;99799.06;;;8.85;81.41
6144;BME280;3103;49.492;8.474;2023-03-25T05:07:51;99806.88;;;8.86;82.09
6144;BME280;3103;49.492;8.474;2023-03-25T05:10:21;99808.84;;;8.74;82.88
6144;BME280;3103;49.492;8.474;2023-03-25T05:12:48;99807.78;;;8.75;84.32
6144;BME280;3103;49.492;8.474;2023-03-25T05:15:16;99798.50;;;8.66;85.36
6144;BME280;3103;49.492;8.474;2023-03-25T05:17:43;99805.47;;;8.67;84.89
6144;BME280;3103;49.492;8.474;2023-03-25T05:20:11;99818.56;;;8.63;84.98
6144;BME280;3103;49.492;8.474;2023-03-25T05:22:39;99817.00;;;8.68;85.44
6144;BME280;3103;49.492;8.474;2023-03-25T05:25:08;99816.75;;;8.69;84.65
6144;BME280;3103;49.492;8.474;2023-03-25T05:27:36;99819.38;;;8.81;84.17
6144;BME280;3103;49.492;8.474;2023-03-25T05:30:05;99824.41;;;8.77;84.35
6144;BME280;3103;49.492;8.474;2023-03-25T05:32:31;99835.13;;;8.77;83.69
6144;BME280;3103;49.492;8.474;2023-03-25T05:35:00;99830.25;;;8.74;83.84
6144;BME280;3103;49.492;8.474;2023-03-25T05:37:28;99809.97;;;8.78;83.54
6144;BME280;3103;49.492;8.474;2023-03-25T05:39:55;99812.81;;;8.88;80.86
6144;BME280;3103;49.492;8.474;2023-03-25T05:42:22;99813.22;;;8.97;80.03
6144;BME280;3103;49.492;8.474;2023-03-25T05:44:52;99826.72;;;9.02;79.61
6144;BME280;3103;49.492;8.474;2023-03-25T05:47:21;99813.13;;;8.92;77.92
6144;BME280;3103;49.492;8.474;2023-03-25T05:49:50;99837.00;;;8.93;78.62
6144;BME280;3103;49.492;8.474;2023-03-25T05:52:18;99832.28;;;9.01;78.29
6144;BME280;3103;49.492;8.474;2023-03-25T05:54:46;99847.34;;;9.02;78.53
6144;BME280;3103;49.492;8.474;2023-03-25T05:57:16;99859.75;;;9.08;78.36
6144;BME280;3103;49.492;8.474;2023-03-25T05:59:42;99859.50;;;9.09;77.73
6144;BME280;3103;49.492;8.474;2023-03-25T06:02:14;99856.31;;;9.12;77.85
6144;BME280;3103;49.492;8.474;2023-03-25T06:04:42;99863.22;;;9.08;77.41
6144;BME280;3103;49.492;8.474;2023-03-25T06:07:10;99869.97;;;9.11;77.70
6144;BME280;3103;49.492;8.474;2023-03-25T06:09:41;99860.00;;;9.06;77.18
6144;BME280;3103;49.492;8.474;2023-03-25T06:12:16;99877.19;;;9.10;77.49
6144;BME280;3103;49.492;8.474;2023-03-25T06:14:43;99879.63;;;9.12;76.22
6144;BME280;3103;49.492;8.474;2023-03-25T06:17:12;99867.97;;;9.18;75.87
6144;BME280;3103;49.492;8.474;2023-03-25T06:19:39;99866.91;;;9.19;74.99
6144;BME280;3103;49.492;8.474;2023-03-25T06:22:07;99890.03;;;9.25;75.35
6144;BME280;3103;49.492;8.474;2023-03-25T06:24:36;99884.78;;;9.30;75.03
6144;BME280;3103;49.492;8.474;2023-03-25T06:27:05;99884.59;;;9.20;75.76
6144;BME280;3103;49.492;8.474;2023-03-25T06:29:35;99884.66;;;9.25;76.30
6144;BME280;3103;49.492;8.474;2023-03-25T06:32:09;99881.84;;;9.32;75.50
6144;BME280;3103;49.492;8.474;2023-03-25T06:34:37;99889.06;;;9.14;76.00
6144;BME280;3103;49.492;8.474;2023-03-25T06:37:04;99889.78;;;9.27;76.26
6144;BME280;3103;49.492;8.474;2023-03-25T06:39:31;99883.16;;;9.29;76.50
6144;BME280;3103;49.492;8.474;2023-03-25T06:42:04;99884.66;;;9.42;76.23
6144;BME280;3103;49.492;8.474;2023-03-25T06:44:45;99882.81;;;9.26;75.49
6144;BME280;3103;49.492;8.474;2023-03-25T06:47:31;99885.91;;;9.34;74.19
6144;BME280;3103;49.492;8.474;2023-03-25T06:49:58;99878.19;;;9.38;74.04
6144;BME280;3103;49.492;8.474;2023-03-25T06:52:25;99868.50;;;9.37;74.04
6144;BME280;3103;49.492;8.474;2023-03-25T06:54:52;99873.28;;;9.51;74.46
6144;BME280;3103;49.492;8.474;2023-03-25T06:57:18;99862.00;;;9.49;74.13
6144;BME280;3103;49.492;8.474;2023-03-25T06:59:45;99857.19;;;9.51;74.43
6144;BME280;3103;49.492;8.474;2023-03-25T07:02:13;99861.97;;;9.66;73.96
6144;BME280;3103;49.492;8.474;2023-03-25T07:04:40;99861.16;;;9.66;74.14
6144;BME280;3103;49.492;8.474;2023-03-25T07:07:07;99866.50;;;9.66;74.19
6144;BME280;3103;49.492;8.474;2023-03-25T07:09:34;99870.91;;;9.72;73.57
6144;BME280;3103;49.492;8.474;2023-03-25T07:12:01;99877.75;;;10.01;72.53
6144;BME280;3103;49.492;8.474;2023-03-25T07:14:28;99875.16;;;10.11;72.40
6144;BME280;3103;49.492;8.474;2023-03-25T07:16:55;99870.97;;;9.99;73.31
6144;BME280;3103;49.492;8.474;2023-03-25T07:19:22;99869.84;;;9.95;73.43
6144;BME280;3103;49.492;8.474;2023-03-25T07:21:48;99867.13;;;9.90;73.33
6144;BME280;3103;49.492;8.474;2023-03-25T07:24:15;99858.81;;;9.91;73.53
6144;BME280;3103;49.492;8.474;2023-03-25T07:26:42;99857.94;;;10.07;72.54
6144;BME280;3103;49.492;8.474;2023-03-25T07:29:10;99857.91;;;10.24;71.65
6144;BME280;3103;49.492;8.474;2023-03-25T07:31:37;99850.25;;;9.94;72.86
6144;BME280;3103;49.492;8.474;2023-03-25T07:34:05;99845.06;;;10.09;72.73
6144;BME280;3103;49.492;8.474;2023-03-25T07:36:33;99837.22;;;10.25;71.84
6144;BME280;3103;49.492;8.474;2023-03-25T07:39:00;99841.69;;;10.41;70.71
6144;BME280;3103;49.492;8.474;2023-03-25T07:41:27;99840.47;;;10.81;69.07
6144;BME280;3103;49.492;8.474;2023-03-25T07:44:09;99844.97;;;10.43;69.32
6144;BME280;3103;49.492;8.474;2023-03-25T07:46:37;99839.25;;;10.93;67.44
6144;BME280;3103;49.492;8.474;2023-03-25T07:49:04;99841.41;;;10.64;68.47
6144;BME280;3103;49.492;8.474;2023-03-25T07:51:30;99829.97;;;10.74;67.94
6144;BME280;3103;49.492;8.474;2023-03-25T07:53:58;99837.72;;;11.03;67.41
6144;BME280;3103;49.492;8.474;2023-03-25T07:56:32;99846.56;;;10.98;68.04
6144;BME280;3103;49.492;8.474;2023-03-25T07:58:59;99835.06;;;11.08;66.16
6144;BME280;3103;49.492;8.474;2023-03-25T08:01:26;99837.38;;;10.94;66.87
6144;BME280;3103;49.492;8.474;2023-03-25T08:03:52;99830.88;;;12.16;63.25
6144;BME280;3103;49.492;8.474;2023-03-25T08:06:19;99832.41;;;11.50;64.73
6144;BME280;3103;49.492;8.474;2023-03-25T08:08:46;99834.91;;;11.24;66.07
6144;BME280;3103;49.492;8.474;2023-03-25T08:11:13;99844.97;;;11.02;66.52
6144;BME280;3103;49.492;8.474;2023-03-25T08:13:40;99839.91;;;10.74;68.82
6144;BME280;3103;49.492;8.474;2023-03-25T08:16:11;99833.16;;;10.71;70.42
6144;BME280;3103;49.492;8.474;2023-03-25T08:18:38;99832.78;;;10.62;71.18
6144;BME280;3103;49.492;8.474;2023-03-25T08:21:05;99834.38;;;10.58;71.27
6144;BME280;3103;49.492;8.474;2023-03-25T08:23:32;99831.69;;;10.58;71.04
6144;BME280;3103;49.492;8.474;2023-03-25T08:26:02;99847.94;;;11.00;70.54
6144;BME280;3103;49.492;8.474;2023-03-25T08:28:31;99840.28;;;10.87;70.22
6144;BME280;3103;49.492;8.474;2023-03-25T08:30:58;99844.13;;;10.69;69.96
6144;BME280;3103;49.492;8.474;2023-03-25T08:33:28;99829.16;;;10.74;70.33
6144;BME280;3103;49.492;8.474;2023-03-25T08:36:00;99834.56;;;10.79;68.99
6144;BME280;3103;49.492;8.474;2023-03-25T08:38:28;99839.75;;;11.22;67.00
6144;BME280;3103;49.492;8.474;2023-03-25T08:41:00;99839.56;;;11.34;66.44
6144;BME280;3103;49.492;8.474;2023-03-25T08:43:27;99839.13;;;11.10;65.95
6144;BME280;3103;49.492;8.474;2023-03-25T08:45:54;99838.50;;;11.35;65.59
6144;BME280;3103;49.492;8.474;2023-03-25T08:48:21;99834.03;;;11.51;65.15
6144;BME280;3103;49.492;8.474;2023-03-25T08:50:48;99832.94;;;11.47;65.06
6144;BME280;3103;49.492;8.474;2023-03-25T08:53:15;99838.50;;;11.35;66.22
6144;BME280;3103;49.492;8.474;2023-03-25T08:55:41;99840.16;;;11.04;66.63
6144;BME280;3103;49.492;8.474;2023-03-25T08:58:08;99831.84;;;11.11;66.91
6144;BME280;3103;49.492;8.474;2023-03-25T09:00:36;99822.28;;;11.25;65.81
6144;BME280;3103;49.492;8.474;2023-03-25T09:03:04;99828.03;;;11.39;65.31
6144;BME280;3103;49.492;8.474;2023-03-25T09:05:30;99824.34;;;11.50;65.55
6144;BME280;3103;49.492;8.474;2023-03-25T09:07:57;99833.00;;;11.57;65.35
6144;BME280;3103;49.492;8.474;2023-03-25T09:10:24;99811.78;;;11.66;64.68
6144;BME280;3103;49.492;8.474;2023-03-25T09:12:51;99817.59;;;11.47;64.22
6144;BME280;3103;49.492;8.474;2023-03-25T09:15:18;99831.25;;;11.36;64.84
6144;BME280;3103;49.492;8.474;2023-03-25T09:17:45;99840.53;;;11.18;65.78
6144;BME280;3103;49.492;8.474;2023-03-25T09:20:12;99832.94;;;11.10;65.59
6144;BME280;3103;49.492;8.474;2023-03-25T09:22:40;99830.56;;;11.13;66.38
6144;BME280;3103;49.492;8.474;2023-03-25T09:25:07;99833.06;;;10.93;66.82
6144;BME280;3103;49.492;8.474;2023-03-25T09:27:34;99838.91;;;11.17;66.32
6144;BME280;3103;49.492;8.474;2023-03-25T09:30:02;99823.22;;;11.04;65.72
6144;BME280;3103;49.492;8.474;2023-03-25T09:32:29;99828.88;;;11.07;65.94
6144;BME280;3103;49.492;8.474;2023-03-25T09:34:56;99833.31;;;11.23;66.09
6144;BME280;3103;49.492;8.474;2023-03-25T09:37:23;99829.19;;;11.53;65.90
6144;BME280;3103;49.492;8.474;2023-03-25T09:39:49;99832.19;;;12.04;63.26
6144;BME280;3103;49.492;8.474;2023-03-25T09:42:37;99842.25;;;11.34;65.68
6144;BME280;3103;49.492;8.474;2023-03-25T09:45:16;99850.59;;;11.33;66.20
6144;BME280;3103;49.492;8.474;2023-03-25T09:47:55;99840.44;;;11.45;66.48
6144;BME280;3103;49.492;8.474;2023-03-25T09:50:24;99838.38;;;11.20;67.14
6144;BME280;3103;49.492;8.474;2023-03-25T09:52:56;99846.56;;;11.35;68.01
6144;BME280;3103;49.492;8.474;2023-03-25T09:55:29;99838.94;;;11.22;67.97
6144;BME280;3103;49.492;8.474;2023-03-25T10:00:45;99839.47;;;11.19;67.38
6144;BME280;3103;49.492;8.474;2023-03-25T10:03:24;99847.25;;;11.15;67.70
6144;BME280;3103;49.492;8.474;2023-03-25T10:06:12;99831.47;;;11.29;66.83
6144;BME280;3103;49.492;8.474;2023-03-25T10:08:54;99837.78;;;11.50;68.23
6144;BME280;3103;49.492;8.474;2023-03-25T10:11:38;99845.66;;;11.19;68.78
6144;BME280;3103;49.492;8.474;2023-03-25T10:14:10;99836.25;;;11.22;68.34
6144;BME280;3103;49.492;8.474;2023-03-25T10:16:59;99833.13;;;11.35;68.78
6144;BME280;3103;49.492;8.474;2023-03-25T10:22:34;99834.75;;;11.36;67.35
6144;BME280;3103;49.492;8.474;2023-03-25T10:25:13;99825.22;;;11.60;65.62
6144;BME280;3103;49.492;8.474;2023-03-25T10:27:46;99822.03;;;11.69;62.99
6144;BME280;3103;49.492;8.474;2023-03-25T10:30:20;99832.03;;;11.78;61.03
6144;BME280;3103;49.492;8.474;2023-03-25T10:32:58;99829.84;;;11.70;62.08
6144;BME280;3103;49.492;8.474;2023-03-25T10:35:28;99832.00;;;11.73;60.92
6144;BME280;3103;49.492;8.474;2023-03-25T10:38:01;99832.03;;;11.78;61.69
6144;BME280;3103;49.492;8.474;2023-03-25T10:40:41;99822.91;;;11.79;60.83
6144;BME280;3103;49.492;8.474;2023-03-25T10:45:50;99812.09;;;11.74;61.32
6144;BME280;3103;49.492;8.474;2023-03-25T10:48:24;99802.63;;;11.62;60.48
6144;BME280;3103;49.492;8.474;2023-03-25T10:51:02;99801.59;;;11.78;61.49
6144;BME280;3103;49.492;8.474;2023-03-25T10:53:30;99806.72;;;12.47;65.87
6144;BME280;3103;49.492;8.474;2023-03-25T10:56:06;99814.50;;;12.28;67.43
6144;BME280;3103;49.492;8.474;2023-03-25T10:58:36;99837.50;;;11.94;65.44
6144;BME280;3103;49.492;8.474;2023-03-25T11:01:13;99837.84;;;12.07;69.92
6144;BME280;3103;49.492;8.474;2023-03-25T11:03:42;99844.97;;;11.81;71.26
6144;BME280;3103;49.492;8.474;2023-03-25T11:06:28;99867.00;;;11.78;73.39
6144;BME280;3103;49.492;8.474;2023-03-25T11:09:15;99872.13;;;11.38;74.35
6144;BME280;3103;49.492;8.474;2023-03-25T11:11:45;99859.31;;;11.13;74.77
6144;BME280;3103;49.492;8.474;2023-03-25T11:14:12;99852.25;;;10.75;76.65
6144;BME280;3103;49.492;8.474;2023-03-25T11:16:46;99858.75;;;10.79;75.31
6144;BME280;3103;49.492;8.474;2023-03-25T11:19:19;99863.44;;;11.25;75.04
6144;BME280;3103;49.492;8.474;2023-03-25T11:21:47;99871.44;;;11.15;74.23
6144;BME280;3103;49.492;8.474;2023-03-25T11:24:18;99879.75;;;11.14;73.79
6144;BME280;3103;49.492;8.474;2023-03-25T11:26:48;99890.25;;;11.15;74.79
6144;BME280;3103;49.492;8.474;2023-03-25T11:29:19;99891.84;;;11.48;73.09
6144;BME280;3103;49.492;8.474;2023-03-25T11:32:06;99890.50;;;11.46;70.47
6144;BME280;3103;49.492;8.474;2023-03-25T11:34:36;99895.34;;;11.49;70.69
6144;BME280;3103;49.492;8.474;2023-03-25T11:37:19;99892.75;;;11.64;70.80
6144;BME280;3103;49.492;8.474;2023-03-25T11:39:52;99897.75;;;11.45;71.91
6144;BME280;3103;49.492;8.474;2023-03-25T11:42:30;99900.66;;;11.39;70.35
6144;BME280;3103;49.492;8.474;2023-03-25T11:44:59;99874.91;;;11.53;70.41
6144;BME280;3103;49.492;8.474;2023-03-25T11:47:35;99889.88;;;11.76;68.34
6144;BME280;3103;49.492;8.474;2023-03-25T11:50:04;99868.16;;;11.82;65.98
6144;BME280;3103;49.492;8.474;2023-03-25T11:52:43;99849.72;;;11.64;66.26
6144;BME280;3103;49.492;8.474;2023-03-25T11:55:18;99839.81;;;12.27;66.97
6144;BME280;3103;49.492;8.474;2023-03-25T11:57:46;99845.09;;;12.02;65.01
6144;BME280;3103;49.492;8.474;2023-03-25T12:00:44;99846.44;;;12.09;65.15
6144;BME280;3103;49.492;8.474;2023-03-25T12:05:40;99846.22;;;12.21;61.42
6144;BME280;3103;49.492;8.474;2023-03-25T12:08:15;99855.47;;;12.45;63.14
6144;BME280;3103;49.492;8.474;2023-03-25T12:16:28;99874.09;;;12.57;61.72
6144;BME280;3103;49.492;8.474;2023-03-25T12:19:08;99862.28;;;13.04;63.98
6144;BME280;3103;49.492;8.474;2023-03-25T12:21:45;99867.72;;;13.34;60.60
6144;BME280;3103;49.492;8.474;2023-03-25T12:27:15;99869.59;;;13.29;61.11
6144;BME280;3103;49.492;8.474;2023-03-25T12:38:09;99856.66;;;13.26;60.27
6144;BME280;3103;49.492;8.474;2023-03-25T12:41:03;99859.88;;;13.43;63.38
6144;BME280;3103;49.492;8.474;2023-03-25T12:47:00;99843.63;;;13.74;57.19
6144;BME280;3103;49.492;8.474;2023-03-25T12:49:12;99831.13;;;13.93;58.06
6144;BME280;3103;49.492;8.474;2023-03-25T12:51:46;99829.06;;;13.64;56.47
6144;BME280;3103;49.492;8.474;2023-03-25T12:54:42;99838.78;;;13.71;58.56
6144;BME280;3103;49.492;8.474;2023-03-25T12:57:57;99837.75;;;13.46;60.61
6144;BME280;3103;49.492;8.474;2023-03-25T13:03:45;99850.16;;;13.57;60.85
6144;BME280;3103;49.492;8.474;2023-03-25T13:06:27;99839.34;;;13.57;53.05
6144;BME280;3103;49.492;8.474;2023-03-25T13:09:08;99852.63;;;13.39;52.69
6144;BME280;3103;49.492;8.474;2023-03-25T13:11:48;99837.25;;;13.19;52.41
6144;BME280;3103;49.492;8.474;2023-03-25T13:14:20;99836.16;;;13.30;52.08
6144;BME280;3103;49.492;8.474;2023-03-25T13:16:51;99832.66;;;13.29;51.92
6144;BME280;3103;49.492;8.474;2023-03-25T13:19:22;99826.97;;;13.36;54.65
6144;BME280;3103;49.492;8.474;2023-03-25T13:21:56;99823.47;;;13.10;51.42
6144;BME280;3103;49.492;8.474;2023-03-25T13:24:33;99823.72;;;13.44;51.88
6144;BME280;3103;49.492;8.474;2023-03-25T13:27:03;99820.50;;;13.32;51.39
6144;BME280;3103;49.492;8.474;2023-03-25T13:29:36;99816.66;;;13.58;54.44
6144;BME280;3103;49.492;8.474;2023-03-25T13:32:09;99817.53;;;13.44;54.78
6144;BME280;3103;49.492;8.474;2023-03-25T13:34:51;99817.25;;;13.15;55.92
6144;BME280;3103;49.492;8.474;2023-03-25T13:37:30;99808.09;;;13.21;55.96
6144;BME280;3103;49.492;8.474;2023-03-25T13:43:15;99820.50;;;13.32;54.74
6144;BME280;3103;49.492;8.474;2023-03-25T13:46:07;99809.19;;;13.30;50.96
6144;BME280;3103;49.492;8.474;2023-03-25T13:49:00;99822.09;;;13.43;51.52
6144;BME280;3103;49.492;8.474;2023-03-25T13:51:28;99826.34;;;13.75;50.62
6144;BME280;3103;49.492;8.474;2023-03-25T14:04:41;99809.44;;;14.13;44.22
6144;BME280;3103;49.492;8.474;2023-03-25T14:07:26;99808.25;;;14.35;45.86
6144;BME280;3103;49.492;8.474;2023-03-25T14:12:49;99808.31;;;14.24;44.92
6144;BME280;3103;49.492;8.474;2023-03-25T14:15:21;99809.66;;;14.27;43.92
6144;BME280;3103;49.492;8.474;2023-03-25T14:17:49;99814.59;;;14.10;43.79
6144;BME280;3103;49.492;8.474;2023-03-25T14:20:32;99813.06;;;14.43;46.21
6144;BME280;3103;49.492;8.474;2023-03-25T14:23:05;99795.25;;;14.42;46.13
6144;BME280;3103;49.492;8.474;2023-03-25T14:25:37;99797.00;;;14.62;47.58
6144;BME280;3103;49.492;8.474;2023-03-25T14:28:07;99803.31;;;14.52;41.80
6144;BME280;3103;49.492;8.474;2023-03-25T14:30:37;99804.84;;;14.63;42.04
6144;BME280;3103;49.492;8.474;2023-03-25T14:33:08;99799.53;;;14.48;42.40
6144;BME280;3103;49.492;8.474;2023-03-25T14:43:43;99805.28;;;14.80;44.96
6144;BME280;3103;49.492;8.474;2023-03-25T14:48:52;99796.59;;;14.83;44.01
6144;BME280;3103;49.492;8.474;2023-03-25T14:56:36;99806.41;;;15.37;39.67
6144;BME280;3103;49.492;8.474;2023-03-25T14:59:12;99807.91;;;15.49;40.91
6144;BME280;3103;49.492;8.474;2023-03-25T15:01:43;99799.19;;;15.28;40.17
6144;BME280;3103;49.492;8.474;2023-03-25T15:04:25;99806.09;;;15.68;41.29
6144;BME280;3103;49.492;8.474;2023-03-25T15:06:54;99816.94;;;15.39;41.29
6144;BME280;3103;49.492;8.474;2023-03-25T15:09:21;99808.75;;;15.15;41.66
6144;BME280;3103;49.492;8.474;2023-03-25T15:12:08;99813.91;;;14.82;39.36
6144;BME280;3103;49.492;8.474;2023-03-25T15:14:41;99812.63;;;15.04;41.13
6144;BME280;3103;49.492;8.474;2023-03-25T15:17:12;99811.38;;;14.91;42.17
6144;BME280;3103;49.492;8.474;2023-03-25T15:22:30;99815.63;;;14.68;39.84